sensor_id;sensor_type;location;lat;lon;timestamp;pressure;altitude;pressure_sealevel;temperature;humidity
68137;BME280;54939;50.826;9.030;2023-05-29T00:00:07;98938.41;;;23.49;47.62
68137;BME280;54939;50.826;9.030;2023-05-29T00:00:38;98935.91;;;23.47;47.66
68137;BME280;54939;50.826;9.030;2023-05-29T00:01:08;98934.00;;;23.48;47.43
68137;BME280;54939;50.826;9.030;2023-05-29T00:01:39;98927.72;;;23.47;47.53
68137;BME280;54939;50.826;9.030;2023-05-29T00:02:10;98932.31;;;23.47;47.64
68137;BME280;54939;50.826;9.030;2023-05-29T00:02:40;98934.00;;;23.48;47.58
68137;BME280;54939;50.826;9.030;2023-05-29T00:03:14;98932.97;;;23.49;47.06
68137;BME280;54939;50.826;9.030;2023-05-29T00:03:44;98925.00;;;23.47;47.36
68137;BME280;54939;50.826;9.030;2023-05-29T00:04:15;98928.56;;;23.48;47.21
68137;BME280;54939;50.826;9.030;2023-05-29T00:04:45;98923.13;;;23.48;46.85
68137;BME280;54939;50.826;9.030;2023-05-29T00:05:15;98923.13;;;23.48;46.65
68137;BME280;54939;50.826;9.030;2023-05-29T00:05:46;98928.56;;;23.48;46.22
68137;BME280;54939;50.826;9.030;2023-05-29T00:06:16;98916.84;;;23.47;47.44
68137;BME280;54939;50.826;9.030;2023-05-29T00:06:46;98934.84;;;23.48;46.46
68137;BME280;54939;50.826;9.030;2023-05-29T00:07:16;98925.84;;;23.48;46.91
68137;BME280;54939;50.826;9.030;2023-05-29T00:07:46;98923.13;;;23.48;46.87
68137;BME280;54939;50.826;9.030;2023-05-29T00:08:18;98929.41;;;23.48;46.52
68137;BME280;54939;50.826;9.030;2023-05-29T00:08:49;98918.50;;;23.48;46.87
68137;BME280;54939;50.826;9.030;2023-05-29T00:09:19;98923.94;;;23.48;46.67
68137;BME280;54939;50.826;9.030;2023-05-29T00:09:49;98925.84;;;23.48;47.08
68137;BME280;54939;50.826;9.030;2023-05-29T00:10:19;98929.41;;;23.48;46.84
68137;BME280;54939;50.826;9.030;2023-05-29T00:10:52;98923.13;;;23.48;46.49
68137;BME280;54939;50.826;9.030;2023-05-29T00:11:22;98923.94;;;23.48;46.86
68137;BME280;54939;50.826;9.030;2023-05-29T00:11:53;98922.88;;;23.49;47.33
68137;BME280;54939;50.826;9.030;2023-05-29T00:12:23;98923.94;;;23.48;46.65
68137;BME280;54939;50.826;9.030;2023-05-29T00:12:53;98920.38;;;23.48;46.92
68137;BME280;54939;50.826;9.030;2023-05-29T00:13:25;98922.06;;;23.49;47.30
68137;BME280;54939;50.826;9.030;2023-05-29T00:13:56;98923.94;;;23.48;47.19
68137;BME280;54939;50.826;9.030;2023-05-29T00:14:26;98918.50;;;23.48;46.99
68137;BME280;54939;50.826;9.030;2023-05-29T00:14:57;98919.34;;;23.49;46.39
68137;BME280;54939;50.826;9.030;2023-05-29T00:15:27;98923.94;;;23.48;45.99
68137;BME280;54939;50.826;9.030;2023-05-29T00:15:58;98923.94;;;23.48;46.45
68137;BME280;54939;50.826;9.030;2023-05-29T00:16:30;98923.94;;;23.48;46.53
68137;BME280;54939;50.826;9.030;2023-05-29T00:17:01;98923.13;;;23.48;46.19
68137;BME280;54939;50.826;9.030;2023-05-29T00:17:32;98925.84;;;23.48;45.54
68137;BME280;54939;50.826;9.030;2023-05-29T00:18:02;98924.78;;;23.49;46.26
68137;BME280;54939;50.826;9.030;2023-05-29T00:18:36;98929.41;;;23.48;46.87
68137;BME280;54939;50.826;9.030;2023-05-29T00:19:06;98935.69;;;23.49;47.12
68137;BME280;54939;50.826;9.030;2023-05-29T00:19:39;98927.72;;;23.47;46.48
68137;BME280;54939;50.826;9.030;2023-05-29T00:20:09;98927.50;;;23.49;46.43
68137;BME280;54939;50.826;9.030;2023-05-29T00:20:43;98930.22;;;23.49;46.25
68137;BME280;54939;50.826;9.030;2023-05-29T00:21:13;98935.69;;;23.49;46.16
68137;BME280;54939;50.826;9.030;2023-05-29T00:21:43;98934.00;;;23.48;47.25
68137;BME280;54939;50.826;9.030;2023-05-29T00:22:17;98940.28;;;23.48;47.56
68137;BME280;54939;50.826;9.030;2023-05-29T00:22:49;98934.84;;;23.48;46.70
68137;BME280;54939;50.826;9.030;2023-05-29T00:23:19;98932.31;;;23.47;47.11
68137;BME280;54939;50.826;9.030;2023-05-29T00:23:49;98940.28;;;23.48;47.33
68137;BME280;54939;50.826;9.030;2023-05-29T00:24:19;98935.69;;;23.49;45.59
68137;BME280;54939;50.826;9.030;2023-05-29T00:24:50;98937.56;;;23.48;45.82
68137;BME280;54939;50.826;9.030;2023-05-29T00:25:20;98929.41;;;23.48;47.20
68137;BME280;54939;50.826;9.030;2023-05-29T00:25:51;98937.56;;;23.48;46.32
68137;BME280;54939;50.826;9.030;2023-05-29T00:26:21;98926.69;;;23.48;47.16
68137;BME280;54939;50.826;9.030;2023-05-29T00:26:51;98926.69;;;23.48;46.17
68137;BME280;54939;50.826;9.030;2023-05-29T00:27:22;98928.56;;;23.48;47.05
68137;BME280;54939;50.826;9.030;2023-05-29T00:27:52;98931.06;;;23.49;46.05
68137;BME280;54939;50.826;9.030;2023-05-29T00:28:22;98929.41;;;23.48;45.42
68137;BME280;54939;50.826;9.030;2023-05-29T00:28:52;98925.84;;;23.48;46.55
68137;BME280;54939;50.826;9.030;2023-05-29T00:29:23;98941.13;;;23.49;46.16
68137;BME280;54939;50.826;9.030;2023-05-29T00:29:53;98924.78;;;23.49;45.71
68137;BME280;54939;50.826;9.030;2023-05-29T00:30:23;98929.41;;;23.48;45.86
68137;BME280;54939;50.826;9.030;2023-05-29T00:30:53;98930.22;;;23.49;47.12
68137;BME280;54939;50.826;9.030;2023-05-29T00:31:23;98938.41;;;23.49;46.85
68137;BME280;54939;50.826;9.030;2023-05-29T00:31:54;98925.84;;;23.48;46.58
68137;BME280;54939;50.826;9.030;2023-05-29T00:32:25;98934.00;;;23.48;47.01
68137;BME280;54939;50.826;9.030;2023-05-29T00:32:55;98934.00;;;23.48;46.75
68137;BME280;54939;50.826;9.030;2023-05-29T00:33:26;98928.56;;;23.48;47.13
68137;BME280;54939;50.826;9.030;2023-05-29T00:33:57;98923.13;;;23.48;45.87
68137;BME280;54939;50.826;9.030;2023-05-29T00:34:27;98925.84;;;23.48;46.01
68137;BME280;54939;50.826;9.030;2023-05-29T00:34:57;98929.41;;;23.48;47.18
68137;BME280;54939;50.826;9.030;2023-05-29T00:35:27;98928.56;;;23.48;45.91
68137;BME280;54939;50.826;9.030;2023-05-29T00:35:58;98923.94;;;23.48;45.70
68137;BME280;54939;50.826;9.030;2023-05-29T00:36:28;98929.41;;;23.48;44.75
68137;BME280;54939;50.826;9.030;2023-05-29T00:36:59;98934.00;;;23.48;44.72
68137;BME280;54939;50.826;9.030;2023-05-29T00:37:29;98938.41;;;23.49;44.93
68137;BME280;54939;50.826;9.030;2023-05-29T00:38:00;98930.22;;;23.49;45.48
68137;BME280;54939;50.826;9.030;2023-05-29T00:38:30;98934.00;;;23.48;45.45
68137;BME280;54939;50.826;9.030;2023-05-29T00:39:00;98930.22;;;23.49;46.48
68137;BME280;54939;50.826;9.030;2023-05-29T00:39:30;98929.41;;;23.48;46.87
68137;BME280;54939;50.826;9.030;2023-05-29T00:40:01;98927.50;;;23.49;46.23
68137;BME280;54939;50.826;9.030;2023-05-29T00:40:31;98930.22;;;23.49;45.92
68137;BME280;54939;50.826;9.030;2023-05-29T00:41:01;98926.69;;;23.48;44.82
68137;BME280;54939;50.826;9.030;2023-05-29T00:41:32;98934.84;;;23.48;46.25
68137;BME280;54939;50.826;9.030;2023-05-29T00:42:03;98925.84;;;23.48;46.14
68137;BME280;54939;50.826;9.030;2023-05-29T00:42:33;98930.22;;;23.49;44.41
68137;BME280;54939;50.826;9.030;2023-05-29T00:43:03;98935.69;;;23.49;46.89
68137;BME280;54939;50.826;9.030;2023-05-29T00:43:33;98935.69;;;23.49;45.95
68137;BME280;54939;50.826;9.030;2023-05-29T00:44:04;98930.22;;;23.49;45.59
68137;BME280;54939;50.826;9.030;2023-05-29T00:44:34;98935.69;;;23.49;45.58
68137;BME280;54939;50.826;9.030;2023-05-29T00:45:05;98927.72;;;23.47;46.46
68137;BME280;54939;50.826;9.030;2023-05-29T00:45:36;98929.41;;;23.48;44.94
68137;BME280;54939;50.826;9.030;2023-05-29T00:46:06;98925.84;;;23.48;45.38
68137;BME280;54939;50.826;9.030;2023-05-29T00:46:36;98926.69;;;23.48;45.87
68137;BME280;54939;50.826;9.030;2023-05-29T00:47:06;98924.78;;;23.49;45.82
68137;BME280;54939;50.826;9.030;2023-05-29T00:47:37;98926.69;;;23.48;44.69
68137;BME280;54939;50.826;9.030;2023-05-29T00:48:07;98920.16;;;23.49;46.92
68137;BME280;54939;50.826;9.030;2023-05-29T00:48:38;98927.50;;;23.49;45.95
68137;BME280;54939;50.826;9.030;2023-05-29T00:49:08;98925.84;;;23.48;45.40
68137;BME280;54939;50.826;9.030;2023-05-29T00:49:38;98929.41;;;23.48;44.78
68137;BME280;54939;50.826;9.030;2023-05-29T00:50:09;98921.22;;;23.48;44.92
68137;BME280;54939;50.826;9.030;2023-05-29T00:50:40;98937.56;;;23.48;44.89
68137;BME280;54939;50.826;9.030;2023-05-29T00:51:11;98931.28;;;23.48;45.40
68137;BME280;54939;50.826;9.030;2023-05-29T00:51:42;98928.97;;;23.45;45.62
68137;BME280;54939;50.826;9.030;2023-05-29T00:52:13;98940.28;;;23.48;45.35
68137;BME280;54939;50.826;9.030;2023-05-29T00:52:44;98929.41;;;23.48;44.76
68137;BME280;54939;50.826;9.030;2023-05-29T00:53:15;98926.69;;;23.48;46.25
68137;BME280;54939;50.826;9.030;2023-05-29T00:53:45;98934.84;;;23.48;45.70
68137;BME280;54939;50.826;9.030;2023-05-29T00:54:17;98928.56;;;23.48;45.29
68137;BME280;54939;50.826;9.030;2023-05-29T00:54:50;98934.00;;;23.48;45.83
68137;BME280;54939;50.826;9.030;2023-05-29T00:55:21;98927.50;;;23.49;45.24
68137;BME280;54939;50.826;9.030;2023-05-29T00:55:52;98934.00;;;23.48;46.47
68137;BME280;54939;50.826;9.030;2023-05-29T00:56:22;98923.94;;;23.48;45.42
68137;BME280;54939;50.826;9.030;2023-05-29T00:56:52;98936.75;;;23.48;47.03
68137;BME280;54939;50.826;9.030;2023-05-29T00:57:23;98935.91;;;23.47;45.64
68137;BME280;54939;50.826;9.030;2023-05-29T00:57:53;98929.41;;;23.48;47.12
68137;BME280;54939;50.826;9.030;2023-05-29T00:58:24;98928.56;;;23.48;45.97
68137;BME280;54939;50.826;9.030;2023-05-29T00:58:54;98925.84;;;23.48;45.35
68137;BME280;54939;50.826;9.030;2023-05-29T00:59:27;98935.91;;;23.47;45.14
68137;BME280;54939;50.826;9.030;2023-05-29T00:59:59;98926.88;;;23.47;45.44
68137;BME280;54939;50.826;9.030;2023-05-29T01:00:30;98923.13;;;23.48;45.76
68137;BME280;54939;50.826;9.030;2023-05-29T01:01:00;98927.72;;;23.47;44.88
68137;BME280;54939;50.826;9.030;2023-05-29T01:01:31;98928.56;;;23.48;45.48
68137;BME280;54939;50.826;9.030;2023-05-29T01:02:02;98932.31;;;23.47;45.77
68137;BME280;54939;50.826;9.030;2023-05-29T01:02:32;98934.84;;;23.48;46.89
68137;BME280;54939;50.826;9.030;2023-05-29T01:03:03;98928.56;;;23.48;46.15
68137;BME280;54939;50.826;9.030;2023-05-29T01:03:34;98925.84;;;23.48;45.99
68137;BME280;54939;50.826;9.030;2023-05-29T01:04:05;98934.84;;;23.48;45.81
68137;BME280;54939;50.826;9.030;2023-05-29T01:04:38;98922.28;;;23.47;45.65
68137;BME280;54939;50.826;9.030;2023-05-29T01:05:09;98931.47;;;23.46;47.19
68137;BME280;54939;50.826;9.030;2023-05-29T01:05:40;98931.47;;;23.46;45.76
68137;BME280;54939;50.826;9.030;2023-05-29T01:06:10;98935.03;;;23.47;45.00
68137;BME280;54939;50.826;9.030;2023-05-29T01:06:40;98929.81;;;23.45;45.92
68137;BME280;54939;50.826;9.030;2023-05-29T01:07:11;98930.66;;;23.46;45.11
68137;BME280;54939;50.826;9.030;2023-05-29T01:07:42;98937.75;;;23.47;46.44
68137;BME280;54939;50.826;9.030;2023-05-29T01:08:12;98930.66;;;23.46;45.42
68137;BME280;54939;50.826;9.030;2023-05-29T01:08:42;98926.88;;;23.47;46.09
68137;BME280;54939;50.826;9.030;2023-05-29T01:09:12;98937.75;;;23.47;45.58
68137;BME280;54939;50.826;9.030;2023-05-29T01:09:44;98932.31;;;23.47;45.68
68137;BME280;54939;50.826;9.030;2023-05-29T01:10:14;98930.66;;;23.46;45.40
68137;BME280;54939;50.826;9.030;2023-05-29T01:10:46;98937.75;;;23.47;44.98
68137;BME280;54939;50.826;9.030;2023-05-29T01:13:07;98935.03;;;23.47;44.95
68137;BME280;54939;50.826;9.030;2023-05-29T01:13:39;98928.56;;;23.48;47.14
68137;BME280;54939;50.826;9.030;2023-05-29T01:14:15;98930.66;;;23.46;44.64
68137;BME280;54939;50.826;9.030;2023-05-29T01:16:16;98937.75;;;23.47;46.05
68137;BME280;54939;50.826;9.030;2023-05-29T01:16:59;98929.59;;;23.47;46.54
68137;BME280;54939;50.826;9.030;2023-05-29T01:17:43;98941.53;;;23.46;45.21
68137;BME280;54939;50.826;9.030;2023-05-29T01:18:51;98926.88;;;23.47;46.35
68137;BME280;54939;50.826;9.030;2023-05-29T01:20:42;98935.91;;;23.47;46.70
68137;BME280;54939;50.826;9.030;2023-05-29T01:22:14;98936.75;;;23.48;45.87
68137;BME280;54939;50.826;9.030;2023-05-29T01:24:00;98940.50;;;23.47;44.95
68137;BME280;54939;50.826;9.030;2023-05-29T01:24:37;98936.09;;;23.46;44.70
68137;BME280;54939;50.826;9.030;2023-05-29T01:25:11;98938.63;;;23.47;44.53
68137;BME280;54939;50.826;9.030;2023-05-29T01:25:50;98940.72;;;23.45;45.65
68137;BME280;54939;50.826;9.030;2023-05-29T01:27:15;98941.53;;;23.46;45.05
68137;BME280;54939;50.826;9.030;2023-05-29T01:27:47;98940.72;;;23.45;44.40
68137;BME280;54939;50.826;9.030;2023-05-29T01:28:19;98938.81;;;23.46;44.71
68137;BME280;54939;50.826;9.030;2023-05-29T01:28:51;98943.22;;;23.47;44.62
68137;BME280;54939;50.826;9.030;2023-05-29T01:29:23;98938.81;;;23.46;44.60
68137;BME280;54939;50.826;9.030;2023-05-29T01:29:54;98937.75;;;23.47;44.61
68137;BME280;54939;50.826;9.030;2023-05-29T01:30:25;98943.22;;;23.47;44.38
68137;BME280;54939;50.826;9.030;2023-05-29T01:30:56;98927.94;;;23.46;44.56
68137;BME280;54939;50.826;9.030;2023-05-29T01:31:27;98932.31;;;23.47;44.56
68137;BME280;54939;50.826;9.030;2023-05-29T01:31:58;98935.03;;;23.47;44.98
68137;BME280;54939;50.826;9.030;2023-05-29T01:32:28;98935.03;;;23.47;46.00
68137;BME280;54939;50.826;9.030;2023-05-29T01:32:59;98938.63;;;23.47;45.28
68137;BME280;54939;50.826;9.030;2023-05-29T01:33:30;98938.63;;;23.47;45.48
68137;BME280;54939;50.826;9.030;2023-05-29T01:34:00;98929.47;;;23.42;44.75
68137;BME280;54939;50.826;9.030;2023-05-29T01:34:30;98935.03;;;23.47;45.12
68137;BME280;54939;50.826;9.030;2023-05-29T01:35:00;98932.53;;;23.45;45.16
68137;BME280;54939;50.826;9.030;2023-05-29T01:35:32;98933.38;;;23.46;45.08
68137;BME280;54939;50.826;9.030;2023-05-29T01:36:02;98933.38;;;23.46;44.95
68137;BME280;54939;50.826;9.030;2023-05-29T01:36:32;98942.59;;;23.45;44.76
68137;BME280;54939;50.826;9.030;2023-05-29T01:37:03;98940.72;;;23.45;44.91
68137;BME280;54939;50.826;9.030;2023-05-29T01:37:33;98938.00;;;23.45;46.00
68137;BME280;54939;50.826;9.030;2023-05-29T01:38:03;98937.75;;;23.47;45.67
68137;BME280;54939;50.826;9.030;2023-05-29T01:38:33;98941.53;;;23.46;45.23
68137;BME280;54939;50.826;9.030;2023-05-29T01:39:04;98936.09;;;23.46;45.27
68137;BME280;54939;50.826;9.030;2023-05-29T01:39:35;98928.97;;;23.45;44.73
68137;BME280;54939;50.826;9.030;2023-05-29T01:40:06;98932.53;;;23.45;45.00
68137;BME280;54939;50.826;9.030;2023-05-29T01:40:36;98934.44;;;23.45;45.99
68137;BME280;54939;50.826;9.030;2023-05-29T01:41:07;98936.09;;;23.46;45.79
68137;BME280;54939;50.826;9.030;2023-05-29T01:41:37;98938.00;;;23.45;44.70
68137;BME280;54939;50.826;9.030;2023-05-29T01:42:07;98937.16;;;23.45;44.78
68137;BME280;54939;50.826;9.030;2023-05-29T01:42:38;98934.44;;;23.45;44.43
68137;BME280;54939;50.826;9.030;2023-05-29T01:43:09;98934.44;;;23.45;44.44
68137;BME280;54939;50.826;9.030;2023-05-29T01:43:39;98934.44;;;23.45;44.75
68137;BME280;54939;50.826;9.030;2023-05-29T01:44:10;98931.72;;;23.45;44.89
68137;BME280;54939;50.826;9.030;2023-05-29T01:44:40;98928.97;;;23.45;44.62
68137;BME280;54939;50.826;9.030;2023-05-29T01:45:11;98931.72;;;23.45;44.67
68137;BME280;54939;50.826;9.030;2023-05-29T01:45:42;98928.16;;;23.44;44.28
68137;BME280;54939;50.826;9.030;2023-05-29T01:46:13;98936.31;;;23.44;44.47
68137;BME280;54939;50.826;9.030;2023-05-29T01:46:43;98928.97;;;23.45;44.40
68137;BME280;54939;50.826;9.030;2023-05-29T01:47:15;98937.16;;;23.45;44.94
68137;BME280;54939;50.826;9.030;2023-05-29T01:47:46;98934.44;;;23.45;45.04
68137;BME280;54939;50.826;9.030;2023-05-29T01:48:17;98941.53;;;23.46;44.71
68137;BME280;54939;50.826;9.030;2023-05-29T01:48:47;98933.59;;;23.44;44.40
68137;BME280;54939;50.826;9.030;2023-05-29T01:49:17;98939.03;;;23.44;44.15
68137;BME280;54939;50.826;9.030;2023-05-29T01:49:48;98940.97;;;23.44;44.03
68137;BME280;54939;50.826;9.030;2023-05-29T01:50:19;98935.53;;;23.44;44.20
68137;BME280;54939;50.826;9.030;2023-05-29T01:50:50;98940.97;;;23.44;43.91
68137;BME280;54939;50.826;9.030;2023-05-29T01:51:20;98940.13;;;23.43;44.18
68137;BME280;54939;50.826;9.030;2023-05-29T01:51:51;98942.84;;;23.43;44.00
68137;BME280;54939;50.826;9.030;2023-05-29T01:52:21;98942.84;;;23.43;44.48
68137;BME280;54939;50.826;9.030;2023-05-29T01:52:51;98938.25;;;23.44;44.06
68137;BME280;54939;50.826;9.030;2023-05-29T01:53:21;98940.13;;;23.43;44.12
68137;BME280;54939;50.826;9.030;2023-05-29T01:53:52;98940.97;;;23.44;44.25
68137;BME280;54939;50.826;9.030;2023-05-29T01:54:23;98940.97;;;23.44;44.26
68137;BME280;54939;50.826;9.030;2023-05-29T01:54:53;98937.41;;;23.43;43.86
68137;BME280;54939;50.826;9.030;2023-05-29T01:55:23;98940.97;;;23.44;44.05
68137;BME280;54939;50.826;9.030;2023-05-29T01:55:53;98940.97;;;23.44;44.04
68137;BME280;54939;50.826;9.030;2023-05-29T01:56:24;98940.97;;;23.44;43.88
68137;BME280;54939;50.826;9.030;2023-05-29T01:56:54;98934.69;;;23.43;44.15
68137;BME280;54939;50.826;9.030;2023-05-29T01:57:25;98943.69;;;23.44;44.23
68137;BME280;54939;50.826;9.030;2023-05-29T01:57:55;98939.03;;;23.44;44.17
68137;BME280;54939;50.826;9.030;2023-05-29T01:58:26;98949.94;;;23.44;44.17
68137;BME280;54939;50.826;9.030;2023-05-29T01:58:58;98943.69;;;23.44;44.25
68137;BME280;54939;50.826;9.030;2023-05-29T01:59:28;98943.69;;;23.44;44.25
68137;BME280;54939;50.826;9.030;2023-05-29T01:59:59;98947.47;;;23.43;44.10
68137;BME280;54939;50.826;9.030;2023-05-29T02:00:30;98942.84;;;23.43;44.04
68137;BME280;54939;50.826;9.030;2023-05-29T02:01:01;98942.03;;;23.43;44.32
68137;BME280;54939;50.826;9.030;2023-05-29T02:01:31;98951.88;;;23.44;44.18
68137;BME280;54939;50.826;9.030;2023-05-29T02:02:08;98951.03;;;23.43;44.09
68137;BME280;54939;50.826;9.030;2023-05-29T02:02:38;98951.03;;;23.43;44.18
68137;BME280;54939;50.826;9.030;2023-05-29T02:03:08;98943.69;;;23.44;45.37
68137;BME280;54939;50.826;9.030;2023-05-29T02:03:39;98950.19;;;23.43;44.58
68137;BME280;54939;50.826;9.030;2023-05-29T02:04:09;98947.47;;;23.43;44.27
68137;BME280;54939;50.826;9.030;2023-05-29T02:04:39;98947.47;;;23.43;44.24
68137;BME280;54939;50.826;9.030;2023-05-29T02:05:09;98943.09;;;23.42;44.90
68137;BME280;54939;50.826;9.030;2023-05-29T02:05:40;98951.25;;;23.42;44.20
68137;BME280;54939;50.826;9.030;2023-05-29T02:06:10;98935.13;;;23.40;44.25
68137;BME280;54939;50.826;9.030;2023-05-29T02:06:41;98942.25;;;23.41;44.12
68137;BME280;54939;50.826;9.030;2023-05-29T02:07:11;98940.38;;;23.42;44.54
68137;BME280;54939;50.826;9.030;2023-05-29T02:07:42;98940.38;;;23.42;44.52
68137;BME280;54939;50.826;9.030;2023-05-29T02:08:12;98948.53;;;23.42;44.21
68137;BME280;54939;50.826;9.030;2023-05-29T02:08:42;98943.91;;;23.42;44.35
68137;BME280;54939;50.826;9.030;2023-05-29T02:09:12;98947.47;;;23.43;45.00
68137;BME280;54939;50.826;9.030;2023-05-29T02:09:42;98946.66;;;23.42;45.03
68137;BME280;54939;50.826;9.030;2023-05-29T02:10:12;98942.25;;;23.41;44.62
68137;BME280;54939;50.826;9.030;2023-05-29T02:10:43;98946.66;;;23.42;44.38
68137;BME280;54939;50.826;9.030;2023-05-29T02:11:13;98943.09;;;23.42;44.60
68137;BME280;54939;50.826;9.030;2023-05-29T02:11:43;98948.53;;;23.42;44.65
68137;BME280;54939;50.826;9.030;2023-05-29T02:12:15;98943.09;;;23.42;44.73
68137;BME280;54939;50.826;9.030;2023-05-29T02:12:45;98945.81;;;23.42;44.89
68137;BME280;54939;50.826;9.030;2023-05-29T02:13:15;98945.81;;;23.42;44.54
68137;BME280;54939;50.826;9.030;2023-05-29T02:13:46;98943.09;;;23.42;44.56
68137;BME280;54939;50.826;9.030;2023-05-29T02:14:16;98950.44;;;23.41;44.32
68137;BME280;54939;50.826;9.030;2023-05-29T02:14:46;98945.81;;;23.42;44.35
68137;BME280;54939;50.826;9.030;2023-05-29T02:15:16;98943.09;;;23.42;44.10
68137;BME280;54939;50.826;9.030;2023-05-29T02:15:46;98950.44;;;23.41;44.40
68137;BME280;54939;50.826;9.030;2023-05-29T02:16:16;98952.09;;;23.42;44.11
68137;BME280;54939;50.826;9.030;2023-05-29T02:16:47;98942.25;;;23.41;44.53
68137;BME280;54939;50.826;9.030;2023-05-29T02:17:18;98951.25;;;23.42;44.52
68137;BME280;54939;50.826;9.030;2023-05-29T02:17:50;98947.69;;;23.41;44.15
68137;BME280;54939;50.826;9.030;2023-05-29T02:18:20;98946.88;;;23.41;44.29
68137;BME280;54939;50.826;9.030;2023-05-29T02:18:50;98945.81;;;23.42;44.17
68137;BME280;54939;50.826;9.030;2023-05-29T02:19:21;98944.97;;;23.41;44.59
68137;BME280;54939;50.826;9.030;2023-05-29T02:19:55;98944.16;;;23.41;44.33
68137;BME280;54939;50.826;9.030;2023-05-29T02:20:25;98948.53;;;23.42;44.17
68137;BME280;54939;50.826;9.030;2023-05-29T02:20:55;98947.69;;;23.41;44.59
68137;BME280;54939;50.826;9.030;2023-05-29T02:21:25;98950.44;;;23.41;44.72
68137;BME280;54939;50.826;9.030;2023-05-29T02:21:55;98949.59;;;23.41;44.27
68137;BME280;54939;50.826;9.030;2023-05-29T02:22:25;98944.16;;;23.41;44.56
68137;BME280;54939;50.826;9.030;2023-05-29T02:22:56;98953.97;;;23.42;44.13
68137;BME280;54939;50.826;9.030;2023-05-29T02:23:26;98942.25;;;23.41;44.12
68137;BME280;54939;50.826;9.030;2023-05-29T02:23:56;98947.69;;;23.41;44.39
68137;BME280;54939;50.826;9.030;2023-05-29T02:24:26;98948.75;;;23.40;44.50
68137;BME280;54939;50.826;9.030;2023-05-29T02:24:56;98944.16;;;23.41;44.31
68137;BME280;54939;50.826;9.030;2023-05-29T02:25:26;98946.88;;;23.41;44.19
68137;BME280;54939;50.826;9.030;2023-05-29T02:25:57;98946.88;;;23.41;44.42
68137;BME280;54939;50.826;9.030;2023-05-29T02:26:27;98949.81;;;23.39;44.26
68137;BME280;54939;50.826;9.030;2023-05-29T02:26:57;98944.38;;;23.39;44.23
68137;BME280;54939;50.826;9.030;2023-05-29T02:27:27;98945.19;;;23.40;44.47
68137;BME280;54939;50.826;9.030;2023-05-29T02:27:57;98942.47;;;23.40;44.54
68137;BME280;54939;50.826;9.030;2023-05-29T02:28:27;98944.38;;;23.39;44.39
68137;BME280;54939;50.826;9.030;2023-05-29T02:28:58;98947.94;;;23.40;44.35
68137;BME280;54939;50.826;9.030;2023-05-29T02:29:28;98947.09;;;23.39;44.38
68137;BME280;54939;50.826;9.030;2023-05-29T02:29:58;98943.53;;;23.39;44.38
68137;BME280;54939;50.826;9.030;2023-05-29T02:30:28;98951.47;;;23.40;44.35
68137;BME280;54939;50.826;9.030;2023-05-29T02:30:58;98948.75;;;23.40;44.33
68137;BME280;54939;50.826;9.030;2023-05-29T02:31:29;98945.19;;;23.40;44.13
68137;BME280;54939;50.826;9.030;2023-05-29T02:31:59;98947.94;;;23.40;44.40
68137;BME280;54939;50.826;9.030;2023-05-29T02:32:29;98943.53;;;23.39;44.36
68137;BME280;54939;50.826;9.030;2023-05-29T02:32:59;98952.31;;;23.41;44.46
68137;BME280;54939;50.826;9.030;2023-05-29T02:33:30;98947.09;;;23.39;44.29
68137;BME280;54939;50.826;9.030;2023-05-29T02:34:00;98949.81;;;23.39;44.61
68137;BME280;54939;50.826;9.030;2023-05-29T02:34:30;98944.38;;;23.39;44.35
68137;BME280;54939;50.826;9.030;2023-05-29T02:35:00;98950.66;;;23.40;44.62
68137;BME280;54939;50.826;9.030;2023-05-29T02:35:30;98943.53;;;23.39;44.27
68137;BME280;54939;50.826;9.030;2023-05-29T02:36:01;98951.47;;;23.40;44.38
68137;BME280;54939;50.826;9.030;2023-05-29T02:36:31;98937.03;;;23.40;44.10
68137;BME280;54939;50.826;9.030;2023-05-29T02:37:01;98945.19;;;23.40;44.19
68137;BME280;54939;50.826;9.030;2023-05-29T02:37:32;98943.53;;;23.39;44.43
68137;BME280;54939;50.826;9.030;2023-05-29T02:38:02;98947.94;;;23.40;44.28
68137;BME280;54939;50.826;9.030;2023-05-29T02:38:33;98947.09;;;23.39;44.26
68137;BME280;54939;50.826;9.030;2023-05-29T02:39:03;98943.53;;;23.39;44.41
68137;BME280;54939;50.826;9.030;2023-05-29T02:39:34;98942.47;;;23.40;44.20
68137;BME280;54939;50.826;9.030;2023-05-29T02:40:04;98942.69;;;23.38;44.31
68137;BME280;54939;50.826;9.030;2023-05-29T02:40:36;98946.25;;;23.39;44.56
68137;BME280;54939;50.826;9.030;2023-05-29T02:41:06;98950.03;;;23.38;44.12
68137;BME280;54939;50.826;9.030;2023-05-29T02:41:36;98939.97;;;23.38;44.13
68137;BME280;54939;50.826;9.030;2023-05-29T02:42:06;98947.31;;;23.38;44.52
68137;BME280;54939;50.826;9.030;2023-05-29T02:42:37;98947.31;;;23.38;44.62
68137;BME280;54939;50.826;9.030;2023-05-29T02:43:07;98945.41;;;23.38;44.14
68137;BME280;54939;50.826;9.030;2023-05-29T02:43:38;98941.88;;;23.38;44.12
68137;BME280;54939;50.826;9.030;2023-05-29T02:44:08;98944.59;;;23.38;44.11
68137;BME280;54939;50.826;9.030;2023-05-29T02:44:38;98950.03;;;23.38;44.43
68137;BME280;54939;50.826;9.030;2023-05-29T02:45:08;98954.44;;;23.39;44.28
68137;BME280;54939;50.826;9.030;2023-05-29T02:45:38;98948.16;;;23.38;44.22
68137;BME280;54939;50.826;9.030;2023-05-29T02:46:09;98954.44;;;23.39;44.26
68137;BME280;54939;50.826;9.030;2023-05-29T02:46:39;98950.88;;;23.38;44.16
68137;BME280;54939;50.826;9.030;2023-05-29T02:47:09;98957.16;;;23.39;44.45
68137;BME280;54939;50.826;9.030;2023-05-29T02:47:39;98955.25;;;23.39;44.32
68137;BME280;54939;50.826;9.030;2023-05-29T02:48:09;98955.25;;;23.39;44.39
68137;BME280;54939;50.826;9.030;2023-05-29T02:48:39;98948.16;;;23.38;44.20
68137;BME280;54939;50.826;9.030;2023-05-29T02:49:10;98956.31;;;23.38;44.21
68137;BME280;54939;50.826;9.030;2023-05-29T02:49:40;98951.72;;;23.39;44.42
68137;BME280;54939;50.826;9.030;2023-05-29T02:50:10;98955.50;;;23.38;44.23
68137;BME280;54939;50.826;9.030;2023-05-29T02:50:40;98959.88;;;23.39;44.17
68137;BME280;54939;50.826;9.030;2023-05-29T02:51:10;98953.59;;;23.38;44.33